createdAt,value
2023-04-23T00:01:19.336Z,12.16
2023-04-23T00:03:47.303Z,12.11
2023-04-23T00:06:15.049Z,12.08
2023-04-23T00:08:42.664Z,12.06
2023-04-23T00:11:10.927Z,12.02
2023-04-23T00:13:38.582Z,11.99
2023-04-23T00:16:06.190Z,11.97
2023-04-23T00:18:33.908Z,11.93
2023-04-23T00:21:01.663Z,11.92
2023-04-23T00:23:29.671Z,11.90
2023-04-23T00:25:57.789Z,11.90
2023-04-23T00:28:25.443Z,11.87
2023-04-23T00:30:53.097Z,11.84
2023-04-23T00:33:20.824Z,11.82
2023-04-23T00:35:49.110Z,11.80
2023-04-23T00:38:16.929Z,11.77
2023-04-23T00:40:44.646Z,11.75
2023-04-23T00:43:12.319Z,11.74
2023-04-23T00:45:39.948Z,11.72
2023-04-23T00:48:09.238Z,11.69
2023-04-23T00:50:37.397Z,11.67
2023-04-23T00:53:04.985Z,11.66
2023-04-23T00:55:32.700Z,11.64
2023-04-23T00:58:00.912Z,11.62
2023-04-23T01:00:28.906Z,11.60
2023-04-23T01:02:58.483Z,11.58
2023-04-23T01:05:26.303Z,11.58
2023-04-23T01:07:53.929Z,11.57
2023-04-23T01:10:22.027Z,11.56
2023-04-23T01:12:50.228Z,11.56
2023-04-23T01:15:18.021Z,11.57
2023-04-23T01:17:45.696Z,11.56
2023-04-23T01:20:13.315Z,11.55
2023-04-23T01:22:40.893Z,11.54
2023-04-23T01:25:09.514Z,11.53
2023-04-23T01:27:37.392Z,11.53
2023-04-23T01:30:06.122Z,11.51
2023-04-23T01:32:33.778Z,11.53
2023-04-23T01:35:01.431Z,11.53
2023-04-23T01:37:29.646Z,11.54
2023-04-23T01:39:57.342Z,11.52
2023-04-23T01:42:24.991Z,11.53
2023-04-23T01:44:52.593Z,11.54
2023-04-23T01:47:20.271Z,11.52
2023-04-23T01:49:48.180Z,11.51
2023-04-23T01:52:15.812Z,11.51
2023-04-23T01:54:44.136Z,11.51
2023-04-23T01:57:11.857Z,11.50
2023-04-23T01:59:39.512Z,11.48
2023-04-23T02:02:11.199Z,11.46
2023-04-23T02:04:39.063Z,11.44
2023-04-23T02:07:06.898Z,11.43
2023-04-23T02:09:34.647Z,11.42
2023-04-23T02:12:02.353Z,11.41
2023-04-23T02:14:29.970Z,11.40
2023-04-23T02:16:57.989Z,11.37
2023-04-23T02:19:25.562Z,11.36
2023-04-23T02:21:53.159Z,11.34
2023-04-23T02:24:20.763Z,11.31
2023-04-23T02:26:49.374Z,11.29
2023-04-23T02:29:16.961Z,11.25
2023-04-23T02:31:44.672Z,11.21
2023-04-23T02:34:12.308Z,11.18
2023-04-23T02:36:39.926Z,11.15
2023-04-23T02:39:12.765Z,11.13
2023-04-23T02:41:40.397Z,11.10
2023-04-23T02:44:08.026Z,11.09
2023-04-23T02:46:37.484Z,11.06
2023-04-23T02:49:05.128Z,11.04
2023-04-23T02:51:33.006Z,11.00
2023-04-23T02:54:00.922Z,10.95
2023-04-23T02:56:28.479Z,10.90
2023-04-23T02:58:56.006Z,10.85
2023-04-23T03:01:23.672Z,10.79
2023-04-23T03:03:51.837Z,10.73
2023-04-23T03:06:19.546Z,10.68
2023-04-23T03:08:47.202Z,10.63
2023-04-23T03:11:14.734Z,10.59
2023-04-23T03:13:42.383Z,10.56
2023-04-23T03:16:10.275Z,10.51
2023-04-23T03:18:37.947Z,10.47
2023-04-23T03:21:06.032Z,10.47
2023-04-23T03:23:33.618Z,10.47
2023-04-23T03:26:01.231Z,10.48
2023-04-23T03:28:29.113Z,10.48
2023-04-23T03:30:56.777Z,10.50
2023-04-23T03:33:24.339Z,10.51
2023-04-23T03:35:51.909Z,10.50
2023-04-23T03:38:19.474Z,10.47
2023-04-23T03:40:47.606Z,10.44
2023-04-23T03:43:15.683Z,10.36
2023-04-23T03:45:43.415Z,10.28
2023-04-23T03:48:11.051Z,10.21
2023-04-23T03:50:40.574Z,10.14
2023-04-23T03:53:10.406Z,10.10
2023-04-23T03:55:37.994Z,10.06
2023-04-23T03:58:05.574Z,10.03
2023-04-23T04:00:33.216Z,10.01
2023-04-23T04:03:02.329Z,10.00
2023-04-23T04:05:31.485Z,9.98
2023-04-23T04:07:59.123Z,10.01
2023-04-23T04:10:26.870Z,10.03
2023-04-23T04:12:55.415Z,10.06
2023-04-23T04:15:23.010Z,10.06
2023-04-23T04:17:51.206Z,10.04
2023-04-23T04:20:18.891Z,10.02
2023-04-23T04:22:46.933Z,9.98
2023-04-23T04:25:14.501Z,9.93
2023-04-23T04:27:43.813Z,9.87
2023-04-23T04:30:11.961Z,9.86
2023-04-23T04:32:40.621Z,9.89
2023-04-23T04:35:09.003Z,9.93
2023-04-23T04:37:36.623Z,10.00
2023-04-23T04:40:05.184Z,10.06
2023-04-23T04:42:32.992Z,10.14
2023-04-23T04:45:00.947Z,10.22
2023-04-23T04:47:28.515Z,10.28
2023-04-23T04:49:57.942Z,10.36
2023-04-23T04:52:25.682Z,10.44
2023-04-23T04:54:53.583Z,10.48
2023-04-23T04:57:22.975Z,10.53
2023-04-23T04:59:50.576Z,10.57
2023-04-23T05:02:18.242Z,10.60
2023-04-23T05:04:45.875Z,10.64
2023-04-23T05:07:13.800Z,10.66
2023-04-23T05:09:42.930Z,10.69
2023-04-23T05:12:12.408Z,10.68
2023-04-23T05:14:40.364Z,10.66
2023-04-23T05:17:08.141Z,10.63
2023-04-23T05:19:36.062Z,10.60
2023-04-23T05:22:04.018Z,10.55
2023-04-23T05:24:31.602Z,10.50
2023-04-23T05:26:59.175Z,10.46
2023-04-23T05:29:26.971Z,10.42
2023-04-23T05:31:55.156Z,10.39
2023-04-23T05:34:22.789Z,10.40
2023-04-23T05:36:50.413Z,10.48
2023-04-23T05:39:17.972Z,10.53
2023-04-23T05:41:45.536Z,10.62
2023-04-23T05:44:13.769Z,10.73
2023-04-23T05:46:41.338Z,10.88
2023-04-23T05:49:08.863Z,11.07
2023-04-23T05:51:36.498Z,11.24
2023-04-23T05:54:04.068Z,11.41
2023-04-23T05:56:32.873Z,11.58
2023-04-23T05:59:00.475Z,11.73
2023-04-23T06:01:28.838Z,11.88
2023-04-23T06:03:56.672Z,12.05
2023-04-23T06:06:24.474Z,12.21
2023-04-23T06:08:52.738Z,12.39
2023-04-23T06:11:21.426Z,12.59
2023-04-23T06:13:49.016Z,12.78
2023-04-23T06:16:16.642Z,12.99
2023-04-23T06:18:44.663Z,13.18
2023-04-23T06:21:13.091Z,13.27
2023-04-23T06:23:40.721Z,13.28
2023-04-23T06:26:08.354Z,13.28
2023-04-23T06:28:35.978Z,13.28
2023-04-23T06:31:03.993Z,13.33
2023-04-23T06:33:32.224Z,13.43
2023-04-23T06:35:59.987Z,13.57
2023-04-23T06:38:27.695Z,13.67
2023-04-23T06:40:55.825Z,13.78
2023-04-23T06:43:23.473Z,13.88
2023-04-23T06:45:51.302Z,13.96
2023-04-23T06:48:19.001Z,14.05
2023-04-23T06:50:47.714Z,14.22
2023-04-23T06:53:15.400Z,14.41
2023-04-23T06:55:43.040Z,14.56
2023-04-23T06:58:13.603Z,14.72
2023-04-23T07:00:41.930Z,14.85
2023-04-23T07:03:09.717Z,14.95
2023-04-23T07:05:37.538Z,15.01
2023-04-23T07:08:05.852Z,15.04
2023-04-23T07:10:34.366Z,15.14
2023-04-23T07:13:02.069Z,15.23
2023-04-23T07:15:29.821Z,15.25
2023-04-23T07:17:57.579Z,15.28
2023-04-23T07:20:25.363Z,15.33
2023-04-23T07:22:53.798Z,15.39
2023-04-23T07:25:22.729Z,15.44
2023-04-23T07:27:50.557Z,15.50
2023-04-23T07:30:18.223Z,15.54
2023-04-23T07:32:45.894Z,15.60
2023-04-23T07:35:14.246Z,15.61
2023-04-23T07:37:41.916Z,15.60
2023-04-23T07:40:09.610Z,15.59
2023-04-23T07:42:37.783Z,15.58
2023-04-23T07:45:06.205Z,15.60
2023-04-23T07:47:36.225Z,15.62
2023-04-23T07:50:04.056Z,15.58
2023-04-23T07:52:31.706Z,15.56
2023-04-23T07:54:59.498Z,15.60
2023-04-23T07:57:27.266Z,15.82
2023-04-23T07:59:54.928Z,16.05
2023-04-23T08:02:26.323Z,16.15
2023-04-23T08:04:54.379Z,16.22
2023-04-23T08:07:22.373Z,16.22
2023-04-23T08:09:50.707Z,16.24
2023-04-23T08:12:19.369Z,16.22
2023-04-23T08:14:47.639Z,16.15
2023-04-23T08:17:15.313Z,16.18
2023-04-23T08:19:43.352Z,16.30
2023-04-23T08:22:11.733Z,16.36
2023-04-23T08:24:39.756Z,16.36
2023-04-23T08:27:07.928Z,16.37
2023-04-23T08:29:35.869Z,16.41
2023-04-23T08:32:04.026Z,16.53
2023-04-23T08:34:32.349Z,16.69
2023-04-23T08:37:01.649Z,16.76
2023-04-23T08:39:30.825Z,16.71
2023-04-23T08:41:58.634Z,16.80
2023-04-23T08:44:26.446Z,16.98
2023-04-23T08:46:54.334Z,17.25
2023-04-23T08:49:22.610Z,17.47
2023-04-23T08:51:50.255Z,17.55
2023-04-23T08:54:18.439Z,17.74
2023-04-23T08:56:46.268Z,17.95
2023-04-23T08:59:14.063Z,18.00
2023-04-23T09:01:42.511Z,18.13
2023-04-23T09:04:10.464Z,18.29
2023-04-23T09:06:38.284Z,18.48
2023-04-23T09:09:07.440Z,18.57
2023-04-23T09:11:35.499Z,18.53
2023-04-23T09:14:03.442Z,18.52
2023-04-23T09:16:31.676Z,18.61
2023-04-23T09:18:59.582Z,18.70
2023-04-23T09:21:27.305Z,18.77
2023-04-23T09:23:55.196Z,18.83
2023-04-23T09:26:23.692Z,19.01
2023-04-23T09:28:51.873Z,19.05
2023-04-23T09:31:19.662Z,19.07
2023-04-23T09:33:47.546Z,19.12
2023-04-23T09:36:15.377Z,19.08
2023-04-23T09:38:45.037Z,18.94
2023-04-23T09:41:12.803Z,18.89
2023-04-23T09:43:40.627Z,18.90
2023-04-23T09:46:08.510Z,19.28
2023-04-23T09:48:36.358Z,19.69
2023-04-23T09:51:04.580Z,20.19
2023-04-23T09:53:32.339Z,20.52
2023-04-23T09:56:00.134Z,21.19
2023-04-23T09:58:29.003Z,21.97
2023-04-23T10:00:56.978Z,22.40
2023-04-23T10:03:25.284Z,22.80
2023-04-23T10:06:01.212Z,23.27
2023-04-23T10:08:29.981Z,23.85
2023-04-23T10:11:06.636Z,24.12
2023-04-23T10:13:46.445Z,24.33
2023-04-23T10:16:21.775Z,24.73
2023-04-23T10:18:51.012Z,24.69
2023-04-23T10:21:19.068Z,24.11
2023-04-23T10:23:47.828Z,24.27
2023-04-23T10:26:15.584Z,24.40
2023-04-23T10:28:43.337Z,24.16
2023-04-23T10:31:11.235Z,23.42
2023-04-23T10:33:49.379Z,22.66
2023-04-23T10:36:25.821Z,22.07
2023-04-23T10:38:58.253Z,21.78
2023-04-23T10:41:28.313Z,21.58
2023-04-23T10:43:56.370Z,21.50
2023-04-23T10:46:24.508Z,21.65
2023-04-23T10:48:52.439Z,21.65
2023-04-23T10:53:59.731Z,20.95
2023-04-23T10:56:27.823Z,20.71
2023-04-23T10:58:56.320Z,20.75
2023-04-23T11:01:24.194Z,20.87
2023-04-23T11:03:52.304Z,20.87
2023-04-23T11:06:20.223Z,20.67
2023-04-23T11:08:48.863Z,20.52
2023-04-23T11:11:17.812Z,20.43
2023-04-23T11:13:45.565Z,20.31
2023-04-23T11:16:13.501Z,20.21
2023-04-23T11:18:41.490Z,20.16
2023-04-23T11:21:09.218Z,20.08
2023-04-23T11:23:37.931Z,20.00
2023-04-23T11:26:05.858Z,19.92
2023-04-23T11:28:33.681Z,20.13
2023-04-23T11:31:01.621Z,20.47
2023-04-23T11:33:29.624Z,20.77
2023-04-23T11:35:57.841Z,21.12
2023-04-23T11:38:25.709Z,21.29
2023-04-23T11:40:54.256Z,21.48
2023-04-23T11:43:22.894Z,21.91
2023-04-23T11:45:52.546Z,22.44
2023-04-23T11:48:20.715Z,22.71
2023-04-23T11:50:48.783Z,22.64
2023-04-23T11:53:16.879Z,22.43
2023-04-23T11:55:46.136Z,21.95
2023-04-23T11:58:14.242Z,21.51
2023-04-23T12:00:42.254Z,21.15
2023-04-23T12:03:10.286Z,20.84
2023-04-23T12:05:38.415Z,20.77
2023-04-23T12:08:06.690Z,20.70
2023-04-23T12:10:34.820Z,20.58
2023-04-23T12:13:02.576Z,20.34
2023-04-23T12:15:30.782Z,20.05
2023-04-23T12:17:58.779Z,19.67
2023-04-23T12:20:26.603Z,19.30
2023-04-23T12:22:55.177Z,19.05
2023-04-23T12:25:23.524Z,19.05
2023-04-23T12:27:51.563Z,19.16
2023-04-23T12:30:19.509Z,19.31
2023-04-23T12:32:47.486Z,19.48
2023-04-23T12:35:15.917Z,19.48
2023-04-23T12:37:44.358Z,19.49
2023-04-23T12:40:12.266Z,19.34
2023-04-23T12:42:40.200Z,19.20
2023-04-23T12:45:08.670Z,19.19
2023-04-23T12:47:37.195Z,19.43
2023-04-23T12:50:06.260Z,19.98
2023-04-23T12:52:34.108Z,20.59
2023-04-23T12:55:02.011Z,21.28
2023-04-23T12:57:30.025Z,22.02
2023-04-23T12:59:57.945Z,22.87
2023-04-23T13:02:26.454Z,23.54
2023-04-23T13:05:01.154Z,23.91
2023-04-23T13:07:29.416Z,23.86
2023-04-23T13:09:57.458Z,23.82
2023-04-23T13:12:27.297Z,23.77
2023-04-23T13:14:55.231Z,23.64
2023-04-23T13:17:23.447Z,23.69
2023-04-23T13:19:51.570Z,23.54
2023-04-23T13:22:19.387Z,23.19
2023-04-23T13:24:48.034Z,23.23
2023-04-23T13:27:15.985Z,23.18
2023-04-23T13:29:44.174Z,23.12
2023-04-23T13:32:12.466Z,23.19
2023-04-23T13:34:40.903Z,23.21
2023-04-23T13:37:09.647Z,23.17
2023-04-23T13:39:39.989Z,23.49
2023-04-23T13:42:10.209Z,23.75
2023-04-23T13:44:38.475Z,23.56
2023-04-23T13:47:06.334Z,23.59
2023-04-23T13:49:34.464Z,23.57
2023-04-23T13:52:07.256Z,23.02
2023-04-23T13:54:35.916Z,22.56
2023-04-23T13:57:04.122Z,22.52
2023-04-23T13:59:32.138Z,22.52
2023-04-23T14:02:00.498Z,22.50
2023-04-23T14:04:28.555Z,22.80
2023-04-23T14:06:56.486Z,22.83
2023-04-23T14:09:24.318Z,22.62
2023-04-23T14:11:52.213Z,22.44
2023-04-23T14:14:21.166Z,22.24
2023-04-23T14:16:49.822Z,22.15
2023-04-23T14:19:18.255Z,22.27
2023-04-23T14:21:46.165Z,22.47
2023-04-23T14:24:13.971Z,22.59
2023-04-23T14:29:14.212Z,22.48
2023-04-23T14:31:42.100Z,22.35
2023-04-23T14:34:10.061Z,22.28
2023-04-23T14:36:38.037Z,22.31
2023-04-23T14:39:08.088Z,22.24
2023-04-23T14:41:36.244Z,21.92
2023-04-23T14:44:04.213Z,21.68
2023-04-23T14:46:32.167Z,21.45
2023-04-23T14:49:00.105Z,21.22
2023-04-23T14:51:29.421Z,21.06
2023-04-23T14:53:57.426Z,20.97
2023-04-23T14:56:25.142Z,20.77
2023-04-23T14:58:52.978Z,20.53
2023-04-23T15:01:20.939Z,20.38
2023-04-23T15:03:49.467Z,20.29
2023-04-23T15:06:17.488Z,20.23
2023-04-23T15:08:45.360Z,20.10
2023-04-23T15:11:14.559Z,19.92
2023-04-23T15:13:42.602Z,19.61
2023-04-23T15:16:11.541Z,19.41
2023-04-23T15:18:39.383Z,19.31
2023-04-23T15:21:07.594Z,19.21
2023-04-23T15:23:35.356Z,19.13
2023-04-23T15:26:03.404Z,19.07
2023-04-23T15:28:32.202Z,19.03
2023-04-23T15:31:00.059Z,18.93
2023-04-23T15:33:27.972Z,18.84
2023-04-23T15:35:58.159Z,18.75
2023-04-23T15:38:27.549Z,18.65
2023-04-23T15:40:55.849Z,18.59
2023-04-23T15:43:24.112Z,18.55
2023-04-23T15:45:53.422Z,18.47
2023-04-23T15:48:21.422Z,18.42
2023-04-23T15:50:49.376Z,18.37
2023-04-23T15:53:17.757Z,18.31
2023-04-23T15:55:45.652Z,18.26
2023-04-23T15:58:13.532Z,18.19
2023-04-23T16:00:41.318Z,18.10
2023-04-23T16:03:09.377Z,18.00
2023-04-23T16:05:39.052Z,17.93
2023-04-23T16:08:06.893Z,17.90
2023-04-23T16:10:34.902Z,17.85
2023-04-23T16:13:02.849Z,17.80
2023-04-23T16:15:30.680Z,17.75
2023-04-23T16:18:00.361Z,17.71
2023-04-23T16:20:28.709Z,17.66
2023-04-23T16:22:56.499Z,17.60
2023-04-23T16:25:24.434Z,17.53
2023-04-23T16:27:52.791Z,17.47
2023-04-23T16:30:21.673Z,17.41
2023-04-23T16:32:49.751Z,17.36
2023-04-23T16:35:17.897Z,17.33
2023-04-23T16:37:45.730Z,17.27
2023-04-23T16:40:15.466Z,17.21
2023-04-23T16:42:44.074Z,17.20
2023-04-23T16:45:11.964Z,17.17
2023-04-23T16:47:39.917Z,17.11
2023-04-23T16:50:08.145Z,17.05
2023-04-23T16:52:36.063Z,16.96
2023-04-23T16:55:04.444Z,16.86
2023-04-23T16:57:32.726Z,16.81
2023-04-23T17:00:00.867Z,16.77
2023-04-23T17:02:29.192Z,16.75
2023-04-23T17:04:57.324Z,16.74
2023-04-23T17:07:25.322Z,16.70
2023-04-23T17:09:53.270Z,16.65
2023-04-23T17:12:22.064Z,16.54
2023-04-23T17:20:48.154Z,16.02
2023-04-23T17:23:16.091Z,15.74
2023-04-23T17:25:44.011Z,15.38
2023-04-23T17:28:11.942Z,15.02
2023-04-23T17:30:39.839Z,14.70
2023-04-23T17:33:10.222Z,14.45
2023-04-23T17:35:38.085Z,14.30
2023-04-23T17:38:05.939Z,14.12
2023-04-23T17:40:33.758Z,13.87
2023-04-23T17:43:01.948Z,13.65
2023-04-23T17:45:30.494Z,13.48
2023-04-23T17:47:58.409Z,13.36
2023-04-23T17:50:28.625Z,13.24
2023-04-23T17:52:56.440Z,13.15
2023-04-23T17:55:25.004Z,13.11
2023-04-23T17:57:53.869Z,13.07
2023-04-23T18:00:22.063Z,13.07
2023-04-23T18:02:50.127Z,13.08
2023-04-23T18:05:18.038Z,13.10
2023-04-23T18:07:45.897Z,13.14
2023-04-23T18:10:14.878Z,13.18
2023-04-23T18:12:42.868Z,13.20
2023-04-23T18:15:12.562Z,13.23
2023-04-23T18:17:42.324Z,13.26
2023-04-23T18:20:10.754Z,13.29
2023-04-23T18:22:39.151Z,13.29
2023-04-23T18:25:07.764Z,13.30
2023-04-23T18:27:35.850Z,13.30
2023-04-23T18:30:05.797Z,13.31
2023-04-23T18:32:34.770Z,13.31
2023-04-23T18:35:04.910Z,13.31
2023-04-23T18:37:33.232Z,13.28
2023-04-23T18:40:01.469Z,13.26
2023-04-23T18:42:29.398Z,13.22
2023-04-23T18:44:57.302Z,13.22
2023-04-23T18:47:25.175Z,13.20
2023-04-23T18:49:53.266Z,13.17
2023-04-23T18:52:21.213Z,13.14
2023-04-23T18:54:49.252Z,13.12
2023-04-23T18:57:17.150Z,13.10
2023-04-23T18:59:45.353Z,13.11
2023-04-23T19:02:21.444Z,13.11
2023-04-23T19:04:56.504Z,13.09
2023-04-23T19:07:24.418Z,13.07
2023-04-23T19:09:52.908Z,13.07
2023-04-23T19:12:20.813Z,13.05
2023-04-23T19:14:48.727Z,13.06
2023-04-23T19:17:18.634Z,13.06
2023-04-23T19:19:46.718Z,13.02
2023-04-23T19:22:15.087Z,13.01
2023-04-23T19:24:42.932Z,12.99
2023-04-23T19:27:10.954Z,12.96
2023-04-23T19:29:38.857Z,12.97
2023-04-23T19:32:06.913Z,12.98
2023-04-23T19:34:35.469Z,12.98
2023-04-23T19:37:03.480Z,13.02
2023-04-23T19:39:31.346Z,13.03
2023-04-23T19:41:59.239Z,13.05
2023-04-23T19:44:27.414Z,13.03
2023-04-23T19:46:56.057Z,13.02
2023-04-23T19:49:23.952Z,12.99
2023-04-23T19:51:51.770Z,12.97
2023-04-23T19:54:19.550Z,12.99
2023-04-23T19:56:47.515Z,13.02
2023-04-23T19:59:17.808Z,13.03
2023-04-23T20:01:45.614Z,13.02
2023-04-23T20:04:13.738Z,13.02
2023-04-23T20:06:42.009Z,13.03
2023-04-23T20:09:18.801Z,13.06
2023-04-23T20:11:46.868Z,13.09
2023-04-23T20:14:14.651Z,13.11
2023-04-23T20:16:42.608Z,13.11
2023-04-23T20:19:11.304Z,13.12
2023-04-23T20:21:40.055Z,13.13
2023-04-23T20:24:08.793Z,13.17
2023-04-23T20:26:36.611Z,13.21
2023-04-23T20:29:04.512Z,13.25
2023-04-23T20:31:32.513Z,13.26
2023-04-23T20:34:00.608Z,13.30
2023-04-23T20:36:31.678Z,13.32
2023-04-23T20:38:59.678Z,13.28
2023-04-23T20:41:27.416Z,13.24
2023-04-23T20:43:55.262Z,13.19
2023-04-23T20:46:24.152Z,13.17
2023-04-23T20:48:54.629Z,13.14
2023-04-23T20:51:22.316Z,13.15
2023-04-23T20:53:50.252Z,13.14
2023-04-23T20:56:18.017Z,13.18
2023-04-23T20:58:46.255Z,13.15
2023-04-23T21:01:14.743Z,13.11
2023-04-23T21:03:42.743Z,13.08
2023-04-23T21:06:10.735Z,13.02
2023-04-23T21:08:41.485Z,12.95
2023-04-23T21:11:11.959Z,12.90
2023-04-23T21:13:39.860Z,12.83
2023-04-23T21:16:07.843Z,12.80
2023-04-23T21:18:35.757Z,12.81
2023-04-23T21:21:03.552Z,12.81
2023-04-23T21:23:31.952Z,12.77
2023-04-23T21:26:00.106Z,12.68
2023-04-23T21:28:28.052Z,12.65
2023-04-23T21:30:55.843Z,12.64
2023-04-23T21:33:24.032Z,12.64
2023-04-23T21:35:51.954Z,12.68
2023-04-23T21:38:19.721Z,12.70
2023-04-23T21:40:47.436Z,12.75
2023-04-23T21:43:15.306Z,12.78
2023-04-23T21:45:43.014Z,12.78
2023-04-23T21:48:11.107Z,12.81
2023-04-23T21:50:39.266Z,12.86
2023-04-23T21:53:07.351Z,12.90
2023-04-23T21:55:35.446Z,12.94
2023-04-23T21:58:16.383Z,12.97
2023-04-23T22:00:46.149Z,12.99
2023-04-23T22:03:25.606Z,12.98
2023-04-23T22:06:02.910Z,12.94
2023-04-23T22:08:30.685Z,12.86
2023-04-23T22:10:59.540Z,12.78
2023-04-23T22:13:27.374Z,12.75
2023-04-23T22:15:57.482Z,12.73
2023-04-23T22:18:25.228Z,12.70
2023-04-23T22:20:53.245Z,12.67
2023-04-23T22:23:22.240Z,12.60
2023-04-23T22:25:49.961Z,12.53
2023-04-23T22:28:17.672Z,12.46
2023-04-23T22:30:45.430Z,12.43
2023-04-23T22:33:13.083Z,12.39
2023-04-23T22:35:41.196Z,12.37
2023-04-23T22:38:12.676Z,12.36
2023-04-23T22:40:40.322Z,12.34
2023-04-23T22:43:07.950Z,12.34
2023-04-23T22:45:35.891Z,12.34
2023-04-23T22:48:04.763Z,12.34
2023-04-23T22:50:32.500Z,12.36
2023-04-23T22:53:00.134Z,12.36
2023-04-23T22:55:27.782Z,12.34
2023-04-23T22:57:55.443Z,12.30
2023-04-23T23:00:24.908Z,12.25
2023-04-23T23:02:53.083Z,12.21
2023-04-23T23:05:21.176Z,12.18
2023-04-23T23:07:50.326Z,12.16
2023-04-23T23:10:17.902Z,12.17
2023-04-23T23:12:45.875Z,12.20
2023-04-23T23:15:13.505Z,12.20
2023-04-23T23:17:41.309Z,12.17
2023-04-23T23:20:09.367Z,12.11
2023-04-23T23:22:37.586Z,12.09
2023-04-23T23:25:06.980Z,12.05
2023-04-23T23:27:34.632Z,11.98
2023-04-23T23:30:05.816Z,11.93
2023-04-23T23:32:33.554Z,11.89
2023-04-23T23:35:01.562Z,11.83
2023-04-23T23:37:29.754Z,11.79
2023-04-23T23:39:57.336Z,11.76
2023-04-23T23:42:25.047Z,11.72
2023-04-23T23:44:52.904Z,11.67
2023-04-23T23:47:20.559Z,11.62
2023-04-23T23:49:48.873Z,11.58
2023-04-23T23:52:16.520Z,11.53
2023-04-23T23:54:44.092Z,11.53
2023-04-23T23:57:12.095Z,11.52
2023-04-23T23:59:39.777Z,11.49
